MSC Mandraki — SZUH — position and weather

sailwx.info

Track history (hours):
 
Tides and Currents Weather Stations Pressure Air Temp Water Temp Dewpoint Dewpoint Depression Visibility Wind Speed Wind Dir Waves Ship Positions

MSC Mandraki

Last reported at 2014-Aug-17 18:31 UTC. Time now 2014-Sep-02 02:06 UTC.
Position N 31°25' E 032°20'.
Warning: this ship's position is 15 days out of date.

Length 294 m; draft 12.1 m.

Type: Ship. MMSI: 240265000.

Date/timePositionNaut miles runAvg speedWind from/ knotsBaromVisibWave heightAir tempDewpointWater temp
2014-Aug-17 18:31N 31°25' E 032°20'0 0.1
2014-Aug-17 17:28N 31°25' E 032°20'0 0.0
2014-Aug-17 16:28N 31°25' E 032°20'0 0.0
2014-Aug-17 15:25N 31°25' E 032°20'0 0.5
2014-Aug-17 14:29N 31°25' E 032°19'2412.1
2014-Aug-17 12:30N 31°42' E 032°00'1515.8
2014-Aug-17 11:33N 31°50' E 031°45'1615.9
2014-Aug-17 10:33N 31°57' E 031°28'1615.8
2014-Aug-17 09:34N 32°04' E 031°11'1615.9
2014-Aug-17 08:34N 32°11' E 030°54'1715.8
2014-Aug-17 07:29N 32°19' E 030°37'1515.7
2014-Aug-17 06:32N 32°26' E 030°21'1615.6
2014-Aug-17 05:31N 32°32' E 030°04'3715.2
2014-Aug-17 03:06N 32°49' E 029°25'1215.1
2014-Aug-17 02:18N 32°54' E 029°12'1115.0
2014-Aug-17 01:33N 32°59' E 028°60'1515.0
2014-Aug-17 00:33N 33°06' E 028°44'1615.1
2014-Aug-16 23:28N 33°13' E 028°26'1615.3
2014-Aug-16 22:24N 33°20' E 028°09'1315.4
2014-Aug-16 21:33N 33°26' E 027°55'1515.3
2014-Aug-16 20:33N 33°33' E 027°38'1515.4
2014-Aug-16 19:33N 33°40' E 027°22'3815.4
2014-Aug-16 17:03N 33°56' E 026°41'21015.4
2014-Aug-16 03:26N 35°26' E 022°50'503 9.8
2014-Aug-14 00:09N 40°21' E 014°14'915.2
2014-Aug-13 23:33N 40°29' E 014°07'1614.2
2014-Aug-13 22:27N 40°44' E 014°14'7 7.5
2014-Aug-13 21:31N 40°50' E 014°17'0 0.1
2014-Aug-13 20:28N 40°50' E 014°17'0 0.0
2014-Aug-13 19:31N 40°50' E 014°17'0 0.0
2014-Aug-13 18:28N 40°50' E 014°17'0 0.0
2014-Aug-13 17:31N 40°50' E 014°17'0 0.0
2014-Aug-13 16:31N 40°50' E 014°17'0 0.0
2014-Aug-13 15:25N 40°50' E 014°17'0 0.0
2014-Aug-13 12:28N 40°50' E 014°17'0 0.0
2014-Aug-13 11:31N 40°50' E 014°17'0 0.0
2014-Aug-13 10:31N 40°50' E 014°17'0 0.0
2014-Aug-13 09:31N 40°50' E 014°17'0 0.0
2014-Aug-13 08:31N 40°50' E 014°17'0 0.2
2014-Aug-13 07:33N 40°50' E 014°17'1 1.1
2014-Aug-13 06:33N 40°49' E 014°16'41 4.5
2014-Aug-12 21:27N 40°38' E 013°24'2814.6
2014-Aug-12 19:34N 40°43' E 012°48'7314.5
2014-Aug-12 14:32N 41°26' E 011°31'176 8.0
2014-Aug-11 16:31N 44°06' E 009°51'0 0.0
2014-Aug-11 15:31N 44°06' E 009°51'0 0.0
2014-Aug-11 14:31N 44°06' E 009°51'0 0.0
2014-Aug-11 13:31N 44°06' E 009°51'0 0.0
2014-Aug-11 12:31N 44°06' E 009°51'0 0.0
2014-Aug-11 11:32N 44°06' E 009°51'1 1.3
2014-Aug-11 10:33N 44°05' E 009°51'4 4.1
2014-Aug-11 09:31N 44°02' E 009°55'0 0.0
2014-Aug-11 08:31N 44°02' E 009°55'0 0.0
2014-Aug-10 22:19N 44°02' E 009°55'0 0.0
2014-Aug-10 21:31N 44°02' E 009°55'0 0.2
2014-Aug-10 20:33N 44°02' E 009°55'3 3.3
2014-Aug-10 19:33N 43°59' E 009°57'1414.1
2014-Aug-10 18:34N 43°48' E 009°45'1515.5
2014-Aug-10 17:34N 43°42' E 009°25'1515.4
2014-Aug-10 16:33N 43°35' E 009°05'1515.3
2014-Aug-10 15:33N 43°29' E 008°46'1515.5
2014-Aug-10 14:34N 43°22' E 008°27'1515.4
2014-Aug-10 13:33N 43°16' E 008°08'1515.2
2014-Aug-10 12:34N 43°09' E 007°49'1515.1
2014-Aug-10 11:34N 43°04' E 007°30'1515.1
2014-Aug-10 10:34N 42°57' E 007°11'1515.0
2014-Aug-10 09:34N 42°51' E 006°52'1414.3
2014-Aug-10 08:33N 42°47' E 006°34'1414.1
2014-Aug-10 07:33N 42°47' E 006°14'1413.6
2014-Aug-10 06:33N 42°52' E 005°57'1413.9
2014-Aug-10 05:33N 42°57' E 005°40'1413.8
2014-Aug-10 04:33N 43°03' E 005°22'1414.4
2014-Aug-10 03:34N 43°09' E 005°04'1413.5
2014-Aug-10 02:33N 43°21' E 004°57'6 6.2
2014-Aug-10 01:33N 43°25' E 004°50'0 0.0
2014-Aug-10 00:33N 43°25' E 004°50'0 0.0
2014-Aug-09 23:33N 43°25' E 004°50'0 0.0
2014-Aug-09 22:33N 43°25' E 004°50'0 0.0
2014-Aug-09 21:33N 43°25' E 004°50'0 0.0
2014-Aug-09 20:33N 43°25' E 004°50'0 0.0
2014-Aug-09 19:33N 43°25' E 004°50'0 0.0
2014-Aug-09 18:33N 43°25' E 004°50'0 0.0
2014-Aug-09 17:33N 43°25' E 004°50'0 0.0
2014-Aug-09 16:33N 43°25' E 004°50'0 0.0
2014-Aug-09 15:33N 43°25' E 004°50'0 0.0
2014-Aug-09 14:33N 43°25' E 004°50'0 0.0
2014-Aug-09 13:33N 43°25' E 004°50'0 0.0
2014-Aug-09 12:33N 43°25' E 004°50'1 0.7
2014-Aug-09 11:33N 43°25' E 004°51'8 8.3
2014-Aug-09 10:33N 43°19' E 004°60'1111.1
2014-Aug-09 09:33N 43°08' E 005°01'1817.4
2014-Aug-09 08:31N 42°54' E 004°45'2317.7
2014-Aug-09 07:14N 42°38' E 004°24'1116.5
2014-Aug-09 06:33N 42°29' E 004°13'1716.7
2014-Aug-09 05:33N 42°18' E 003°57'1616.3
2014-Aug-09 04:33N 42°06' E 003°43'1716.9
2014-Aug-09 03:33N 41°54' E 003°27'1716.9
2014-Aug-09 02:34N 41°41' E 003°11'1817.8
2014-Aug-09 01:33N 41°29' E 002°54'1716.6
2014-Aug-09 00:33N 41°16' E 002°40'1616.6
2014-Aug-08 23:33N 41°04' E 002°24'1717.1
2014-Aug-08 22:33N 40°52' E 002°09'1817.9
2014-Aug-08 21:33N 40°39' E 001°53'1817.6
2014-Aug-08 20:33N 40°26' E 001°37'1817.7
2014-Aug-08 19:33N 40°13' E 001°21'1818.0
2014-Aug-08 18:33N 40°00' E 001°04'1817.9
2014-Aug-08 17:32N 39°47' E 000°48'1918.5
2014-Aug-08 16:31N 39°39' E 000°26'1917.8
2014-Aug-08 15:28N 39°32' E 000°04'1516.2
2014-Aug-08 14:33N 39°26' W 000°14'4 3.9
2014-Aug-08 13:33N 39°26' W 000°19'0 0.0
2014-Aug-08 12:33N 39°26' W 000°19'0 0.0
2014-Aug-08 11:33N 39°26' W 000°19'0 0.0
2014-Aug-08 10:33N 39°26' W 000°19'0 0.0
2014-Aug-08 09:33N 39°26' W 000°19'0 0.0
2014-Aug-08 08:33N 39°26' W 000°19'0 0.0
2014-Aug-08 07:33N 39°26' W 000°19'0 0.0
2014-Aug-08 06:30N 39°26' W 000°19'0 0.0
2014-Aug-08 05:33N 39°26' W 000°19'0 0.2
2014-Aug-08 04:34N 39°26' W 000°19'4312.5
2014-Aug-08 01:07N 38°54' E 000°18'915.5
2014-Aug-08 00:32N 38°48' E 000°26'1313.6
2014-Aug-07 23:33N 38°35' E 000°22'1616.1
2014-Aug-07 22:32N 38°21' E 000°11'1916.1
2014-Aug-07 21:21N 38°05' W 000°03'1316.4
2014-Aug-07 20:32N 37°54' W 000°12'1616.2
2014-Aug-07 19:33N 37°41' W 000°24'1616.1
2014-Aug-07 18:33N 37°29' W 000°37'  
Track history (hours):
 
Tides and Currents Weather Stations Pressure Air Temp Water Temp Dewpoint Dewpoint Depression Visibility Wind Speed Wind Dir Waves Ship Positions

MSC Mandraki

Last reported at 2014-Aug-17 18:31 UTC. Time now 2014-Sep-02 02:06 UTC.
Position N 31°25' E 032°20'.
Warning: this ship's position is 15 days out of date.

Length 294 m; draft 12.1 m.

Type: Ship. MMSI: 240265000.

Date/timePositionNaut miles runAvg speedWind from/ knotsBaromVisibWave heightAir tempDewpointWater temp
2014-Aug-17 18:31N 31°25' E 032°20'0 0.1
2014-Aug-17 17:28N 31°25' E 032°20'0 0.0
2014-Aug-17 16:28N 31°25' E 032°20'0 0.0
2014-Aug-17 15:25N 31°25' E 032°20'0 0.5
2014-Aug-17 14:29N 31°25' E 032°19'2412.1
2014-Aug-17 12:30N 31°42' E 032°00'1515.8
2014-Aug-17 11:33N 31°50' E 031°45'1615.9
2014-Aug-17 10:33N 31°57' E 031°28'1615.8
2014-Aug-17 09:34N 32°04' E 031°11'1615.9
2014-Aug-17 08:34N 32°11' E 030°54'1715.8
2014-Aug-17 07:29N 32°19' E 030°37'1515.7
2014-Aug-17 06:32N 32°26' E 030°21'1615.6
2014-Aug-17 05:31N 32°32' E 030°04'3715.2
2014-Aug-17 03:06N 32°49' E 029°25'1215.1
2014-Aug-17 02:18N 32°54' E 029°12'1115.0
2014-Aug-17 01:33N 32°59' E 028°60'1515.0
2014-Aug-17 00:33N 33°06' E 028°44'1615.1
2014-Aug-16 23:28N 33°13' E 028°26'1615.3
2014-Aug-16 22:24N 33°20' E 028°09'1315.4
2014-Aug-16 21:33N 33°26' E 027°55'1515.3
2014-Aug-16 20:33N 33°33' E 027°38'1515.4
2014-Aug-16 19:33N 33°40' E 027°22'3815.4
2014-Aug-16 17:03N 33°56' E 026°41'21015.4
2014-Aug-16 03:26N 35°26' E 022°50'503 9.8
2014-Aug-14 00:09N 40°21' E 014°14'915.2
2014-Aug-13 23:33N 40°29' E 014°07'1614.2
2014-Aug-13 22:27N 40°44' E 014°14'7 7.5
2014-Aug-13 21:31N 40°50' E 014°17'0 0.1
2014-Aug-13 20:28N 40°50' E 014°17'0 0.0
2014-Aug-13 19:31N 40°50' E 014°17'0 0.0
2014-Aug-13 18:28N 40°50' E 014°17'0 0.0
2014-Aug-13 17:31N 40°50' E 014°17'0 0.0
2014-Aug-13 16:31N 40°50' E 014°17'0 0.0
2014-Aug-13 15:25N 40°50' E 014°17'0 0.0
2014-Aug-13 12:28N 40°50' E 014°17'0 0.0
2014-Aug-13 11:31N 40°50' E 014°17'0 0.0
2014-Aug-13 10:31N 40°50' E 014°17'0 0.0
2014-Aug-13 09:31N 40°50' E 014°17'0 0.0
2014-Aug-13 08:31N 40°50' E 014°17'0 0.2
2014-Aug-13 07:33N 40°50' E 014°17'1 1.1
2014-Aug-13 06:33N 40°49' E 014°16'41 4.5
2014-Aug-12 21:27N 40°38' E 013°24'2814.6
2014-Aug-12 19:34N 40°43' E 012°48'7314.5
2014-Aug-12 14:32N 41°26' E 011°31'176 8.0
2014-Aug-11 16:31N 44°06' E 009°51'0 0.0
2014-Aug-11 15:31N 44°06' E 009°51'0 0.0
2014-Aug-11 14:31N 44°06' E 009°51'0 0.0
2014-Aug-11 13:31N 44°06' E 009°51'0 0.0
2014-Aug-11 12:31N 44°06' E 009°51'0 0.0
2014-Aug-11 11:32N 44°06' E 009°51'1 1.3
2014-Aug-11 10:33N 44°05' E 009°51'4 4.1
2014-Aug-11 09:31N 44°02' E 009°55'0 0.0
2014-Aug-11 08:31N 44°02' E 009°55'0 0.0
2014-Aug-10 22:19N 44°02' E 009°55'0 0.0
2014-Aug-10 21:31N 44°02' E 009°55'0 0.2
2014-Aug-10 20:33N 44°02' E 009°55'3 3.3
2014-Aug-10 19:33N 43°59' E 009°57'1414.1
2014-Aug-10 18:34N 43°48' E 009°45'1515.5
2014-Aug-10 17:34N 43°42' E 009°25'1515.4
2014-Aug-10 16:33N 43°35' E 009°05'1515.3
2014-Aug-10 15:33N 43°29' E 008°46'1515.5
2014-Aug-10 14:34N 43°22' E 008°27'1515.4
2014-Aug-10 13:33N 43°16' E 008°08'1515.2
2014-Aug-10 12:34N 43°09' E 007°49'1515.1
2014-Aug-10 11:34N 43°04' E 007°30'1515.1
2014-Aug-10 10:34N 42°57' E 007°11'1515.0
2014-Aug-10 09:34N 42°51' E 006°52'1414.3
2014-Aug-10 08:33N 42°47' E 006°34'1414.1
2014-Aug-10 07:33N 42°47' E 006°14'1413.6
2014-Aug-10 06:33N 42°52' E 005°57'1413.9
2014-Aug-10 05:33N 42°57' E 005°40'1413.8
2014-Aug-10 04:33N 43°03' E 005°22'1414.4
2014-Aug-10 03:34N 43°09' E 005°04'1413.5
2014-Aug-10 02:33N 43°21' E 004°57'6 6.2
2014-Aug-10 01:33N 43°25' E 004°50'0 0.0
2014-Aug-10 00:33N 43°25' E 004°50'0 0.0
2014-Aug-09 23:33N 43°25' E 004°50'0 0.0
2014-Aug-09 22:33N 43°25' E 004°50'0 0.0
2014-Aug-09 21:33N 43°25' E 004°50'0 0.0
2014-Aug-09 20:33N 43°25' E 004°50'0 0.0
2014-Aug-09 19:33N 43°25' E 004°50'0 0.0
2014-Aug-09 18:33N 43°25' E 004°50'0 0.0
2014-Aug-09 17:33N 43°25' E 004°50'0 0.0
2014-Aug-09 16:33N 43°25' E 004°50'0 0.0
2014-Aug-09 15:33N 43°25' E 004°50'0 0.0
2014-Aug-09 14:33N 43°25' E 004°50'0 0.0
2014-Aug-09 13:33N 43°25' E 004°50'0 0.0
2014-Aug-09 12:33N 43°25' E 004°50'1 0.7
2014-Aug-09 11:33N 43°25' E 004°51'8 8.3
2014-Aug-09 10:33N 43°19' E 004°60'1111.1
2014-Aug-09 09:33N 43°08' E 005°01'1817.4
2014-Aug-09 08:31N 42°54' E 004°45'2317.7
2014-Aug-09 07:14N 42°38' E 004°24'1116.5
2014-Aug-09 06:33N 42°29' E 004°13'1716.7
2014-Aug-09 05:33N 42°18' E 003°57'1616.3
2014-Aug-09 04:33N 42°06' E 003°43'1716.9
2014-Aug-09 03:33N 41°54' E 003°27'1716.9
2014-Aug-09 02:34N 41°41' E 003°11'1817.8
2014-Aug-09 01:33N 41°29' E 002°54'1716.6
2014-Aug-09 00:33N 41°16' E 002°40'1616.6
2014-Aug-08 23:33N 41°04' E 002°24'1717.1
2014-Aug-08 22:33N 40°52' E 002°09'1817.9
2014-Aug-08 21:33N 40°39' E 001°53'1817.6
2014-Aug-08 20:33N 40°26' E 001°37'1817.7
2014-Aug-08 19:33N 40°13' E 001°21'1818.0
2014-Aug-08 18:33N 40°00' E 001°04'1817.9
2014-Aug-08 17:32N 39°47' E 000°48'1918.5
2014-Aug-08 16:31N 39°39' E 000°26'1917.8
2014-Aug-08 15:28N 39°32' E 000°04'1516.2
2014-Aug-08 14:33N 39°26' W 000°14'4 3.9
2014-Aug-08 13:33N 39°26' W 000°19'0 0.0
2014-Aug-08 12:33N 39°26' W 000°19'0 0.0
2014-Aug-08 11:33N 39°26' W 000°19'0 0.0
2014-Aug-08 10:33N 39°26' W 000°19'0 0.0
2014-Aug-08 09:33N 39°26' W 000°19'0 0.0
2014-Aug-08 08:33N 39°26' W 000°19'0 0.0
2014-Aug-08 07:33N 39°26' W 000°19'0 0.0
2014-Aug-08 06:30N 39°26' W 000°19'0 0.0
2014-Aug-08 05:33N 39°26' W 000°19'0 0.2
2014-Aug-08 04:34N 39°26' W 000°19'4312.5
2014-Aug-08 01:07N 38°54' E 000°18'915.5
2014-Aug-08 00:32N 38°48' E 000°26'1313.6
2014-Aug-07 23:33N 38°35' E 000°22'1616.1
2014-Aug-07 22:32N 38°21' E 000°11'1916.1
2014-Aug-07 21:21N 38°05' W 000°03'1316.4
2014-Aug-07 20:32N 37°54' W 000°12'1616.2
2014-Aug-07 19:33N 37°41' W 000°24'1616.1
2014-Aug-07 18:33N 37°29' W 000°37'  

Dump ship's entire track history